SWA2622 KTPA-KRDU
Flight info
| Callsign | SWA2622 |
|---|---|
| Flight time | 1h 23m |
| Altitude | 35000 |
| Route | BAYPO2 CAMJO Q99 TEEEM PETTO DMSTR2 |
| Aircraft | B737/M-SADE2E3GIJ4RWZ/LB1D1 |
Departure
| Time | 2026-05-07 22:00 |
|---|---|
| Airport | Tampa International Airport (KTPA) |
Arrival
| Time | 2026-05-07 23:24 |
|---|---|
| Airport | Raleigh-Durham International Airport (KRDU) |
| Time | Latitude | Longitude | Altitude | Speed | Heading |
|---|---|---|---|---|---|
| 2026-05-07 21:33 | 27.98423 | -82.53256 | 34 ft | 0 kts | 182° |
| 2026-05-07 21:53 | 27.98424 | -82.53256 | 34 ft | 1 kts | 182° |
| 2026-05-07 21:53 | 27.98441 | -82.53255 | 34 ft | 3 kts | 185° |
| 2026-05-07 21:53 | 27.98461 | -82.53252 | 34 ft | 3 kts | 194° |
| 2026-05-07 21:53 | 27.98480 | -82.53244 | 34 ft | 3 kts | 219° |
| 2026-05-07 21:54 | 27.98489 | -82.53229 | 34 ft | 2 kts | 271° |
| 2026-05-07 21:54 | 27.98489 | -82.53228 | 34 ft | 0 kts | 271° |
| 2026-05-07 21:56 | 27.98489 | -82.53230 | 34 ft | 3 kts | 271° |
| 2026-05-07 21:56 | 27.98491 | -82.53323 | 34 ft | 21 kts | 271° |
| 2026-05-07 21:56 | 27.98495 | -82.53503 | 34 ft | 23 kts | 271° |
| 2026-05-07 21:56 | 27.98499 | -82.53677 | 34 ft | 22 kts | 271° |
| 2026-05-07 21:57 | 27.98554 | -82.53824 | 34 ft | 21 kts | 310° |
| 2026-05-07 21:57 | 27.98653 | -82.53940 | 34 ft | 20 kts | 335° |
| 2026-05-07 21:57 | 27.98784 | -82.53946 | 34 ft | 19 kts | 1° |
| 2026-05-07 21:57 | 27.98913 | -82.53943 | 34 ft | 18 kts | 1° |
| 2026-05-07 21:58 | 27.99035 | -82.53939 | 34 ft | 17 kts | 1° |
| 2026-05-07 21:58 | 27.99150 | -82.53934 | 34 ft | 16 kts | 2° |
| 2026-05-07 21:58 | 27.99250 | -82.53959 | 34 ft | 15 kts | 290° |
| 2026-05-07 21:58 | 27.99254 | -82.54074 | 34 ft | 14 kts | 259° |
| 2026-05-07 21:59 | 27.99186 | -82.54135 | 34 ft | 13 kts | 181° |
| 2026-05-07 21:59 | 27.99051 | -82.54140 | 34 ft | 39 kts | 182° |
| 2026-05-07 21:59 | 27.98570 | -82.54157 | 34 ft | 98 kts | 181° |
| 2026-05-07 21:59 | 27.97709 | -82.54186 | 37 ft | 147 kts | 182° |
| 2026-05-07 22:00 | 27.96658 | -82.54184 | 460 ft | 156 kts | 180° |
| 2026-05-07 22:00 | 27.95569 | -82.54184 | 1116 ft | 151 kts | 185° |
| 2026-05-07 22:00 | 27.94530 | -82.54328 | 1702 ft | 156 kts | 192° |
| 2026-05-07 22:00 | 27.93441 | -82.54657 | 1994 ft | 176 kts | 208° |
| 2026-05-07 22:01 | 27.92538 | -82.55674 | 2235 ft | 194 kts | 243° |
| 2026-05-07 22:01 | 27.92306 | -82.57241 | 2500 ft | 213 kts | 276° |
| 2026-05-07 22:01 | 27.92883 | -82.58818 | 2765 ft | 236 kts | 304° |
| 2026-05-07 22:01 | 27.94195 | -82.59979 | 3379 ft | 247 kts | 333° |
| 2026-05-07 22:02 | 27.95950 | -82.60380 | 3941 ft | 267 kts | 357° |
| 2026-05-07 22:02 | 27.97827 | -82.60090 | 4692 ft | 278 kts | 8° |
| 2026-05-07 22:02 | 27.99604 | -82.59707 | 5478 ft | 279 kts | 6° |
| 2026-05-07 22:02 | 28.01587 | -82.59380 | 6405 ft | 278 kts | 4° |
| 2026-05-07 22:03 | 28.03532 | -82.59189 | 7191 ft | 285 kts | 358° |
| 2026-05-07 22:03 | 28.05537 | -82.59130 | 7998 ft | 291 kts | 358° |
| 2026-05-07 22:03 | 28.07578 | -82.59004 | 8873 ft | 295 kts | 0° |
| 2026-05-07 22:03 | 28.09640 | -82.58801 | 9760 ft | 300 kts | 2° |
| 2026-05-07 22:04 | 28.11733 | -82.58553 | 10615 ft | 306 kts | 2° |
| 2026-05-07 22:04 | 28.13914 | -82.58293 | 11134 ft | 324 kts | 2° |
| 2026-05-07 22:04 | 28.16195 | -82.58023 | 11764 ft | 335 kts | 2° |
| 2026-05-07 22:04 | 28.18529 | -82.57747 | 12614 ft | 338 kts | 2° |
| 2026-05-07 22:05 | 28.20879 | -82.57620 | 13644 ft | 337 kts | 355° |
| 2026-05-07 22:05 | 28.23201 | -82.57663 | 14521 ft | 339 kts | 354° |
| 2026-05-07 22:05 | 28.25608 | -82.57750 | 15334 ft | 344 kts | 353° |
| 2026-05-07 22:05 | 28.27984 | -82.57828 | 16137 ft | 349 kts | 353° |
| 2026-05-07 22:06 | 28.30418 | -82.57901 | 16932 ft | 353 kts | 353° |
| 2026-05-07 22:06 | 28.32899 | -82.57974 | 17684 ft | 358 kts | 353° |
| 2026-05-07 22:06 | 28.35413 | -82.58049 | 18469 ft | 362 kts | 353° |
| 2026-05-07 22:06 | 28.37951 | -82.58119 | 19228 ft | 367 kts | 353° |
| 2026-05-07 22:07 | 28.40517 | -82.58181 | 19986 ft | 370 kts | 352° |
| 2026-05-07 22:07 | 28.43108 | -82.58245 | 20703 ft | 375 kts | 352° |
| 2026-05-07 22:07 | 28.45725 | -82.58311 | 21395 ft | 379 kts | 352° |
| 2026-05-07 22:07 | 28.48380 | -82.58377 | 22059 ft | 383 kts | 352° |
| 2026-05-07 22:08 | 28.51060 | -82.58445 | 22687 ft | 388 kts | 352° |
| 2026-05-07 22:08 | 28.53774 | -82.58513 | 23309 ft | 392 kts | 352° |
| 2026-05-07 22:08 | 28.56516 | -82.58582 | 23909 ft | 396 kts | 352° |
| 2026-05-07 22:08 | 28.59274 | -82.58651 | 24507 ft | 399 kts | 352° |
| 2026-05-07 22:09 | 28.62069 | -82.58721 | 25072 ft | 403 kts | 351° |
| 2026-05-07 22:09 | 28.64881 | -82.58793 | 25641 ft | 405 kts | 352° |
| 2026-05-07 22:09 | 28.67706 | -82.58903 | 26184 ft | 406 kts | 349° |
| 2026-05-07 22:09 | 28.70519 | -82.59205 | 26717 ft | 407 kts | 346° |
| 2026-05-07 22:10 | 28.73291 | -82.59611 | 27224 ft | 408 kts | 345° |
| 2026-05-07 22:10 | 28.76154 | -82.60053 | 27732 ft | 411 kts | 345° |
| 2026-05-07 22:10 | 28.78964 | -82.60472 | 28199 ft | 414 kts | 346° |
| 2026-05-07 22:10 | 28.81829 | -82.60888 | 28657 ft | 417 kts | 346° |
| 2026-05-07 22:11 | 28.84709 | -82.61299 | 29093 ft | 420 kts | 346° |
| 2026-05-07 22:11 | 28.87621 | -82.61711 | 29528 ft | 422 kts | 345° |
| 2026-05-07 22:11 | 28.90531 | -82.62123 | 30095 ft | 420 kts | 346° |
| 2026-05-07 22:11 | 28.93413 | -82.62528 | 30785 ft | 415 kts | 346° |
| 2026-05-07 22:12 | 28.96276 | -82.62931 | 31425 ft | 413 kts | 346° |
| 2026-05-07 22:12 | 28.99120 | -82.63330 | 31937 ft | 412 kts | 346° |
| 2026-05-07 22:12 | 29.01970 | -82.63727 | 32445 ft | 412 kts | 346° |
| 2026-05-07 22:12 | 29.04812 | -82.64124 | 32996 ft | 410 kts | 346° |
| 2026-05-07 22:13 | 29.07646 | -82.64521 | 33500 ft | 409 kts | 346° |
| 2026-05-07 22:13 | 29.10468 | -82.64915 | 34014 ft | 408 kts | 346° |
| 2026-05-07 22:13 | 29.13278 | -82.65307 | 34507 ft | 407 kts | 346° |
| 2026-05-07 22:13 | 29.16089 | -82.65701 | 34901 ft | 409 kts | 346° |
| 2026-05-07 22:14 | 29.21774 | -82.66500 | 34999 ft | 412 kts | 346° |
| 2026-05-07 22:14 | 29.26488 | -82.67164 | 35000 ft | 407 kts | 346° |
| 2026-05-07 22:15 | 29.32088 | -82.67955 | 35004 ft | 406 kts | 345° |
| 2026-05-07 22:15 | 29.37698 | -82.68746 | 35002 ft | 405 kts | 345° |
| 2026-05-07 22:16 | 29.43314 | -82.69382 | 34996 ft | 409 kts | 350° |
| 2026-05-07 22:16 | 29.49049 | -82.69386 | 34999 ft | 414 kts | 353° |
| 2026-05-07 22:17 | 29.54808 | -82.69278 | 34997 ft | 414 kts | 352° |
| 2026-05-07 22:17 | 29.60542 | -82.69219 | 34991 ft | 414 kts | 352° |
| 2026-05-07 22:18 | 29.69135 | -82.69156 | 34995 ft | 412 kts | 352° |
| 2026-05-07 22:19 | 29.74918 | -82.69118 | 34990 ft | 416 kts | 352° |
| 2026-05-07 22:19 | 29.80728 | -82.69082 | 34991 ft | 416 kts | 352° |
| 2026-05-07 22:20 | 29.86494 | -82.69045 | 34993 ft | 413 kts | 352° |
| 2026-05-07 22:20 | 29.92264 | -82.69008 | 34988 ft | 417 kts | 352° |
| 2026-05-07 22:21 | 29.98054 | -82.68972 | 34989 ft | 416 kts | 352° |
| 2026-05-07 22:21 | 30.03815 | -82.68933 | 34981 ft | 413 kts | 352° |
| 2026-05-07 22:22 | 30.09579 | -82.68894 | 34979 ft | 416 kts | 352° |
| 2026-05-07 22:22 | 30.15361 | -82.68854 | 34979 ft | 415 kts | 352° |
| 2026-05-07 22:23 | 30.21113 | -82.68813 | 34976 ft | 413 kts | 352° |
| 2026-05-07 22:23 | 30.26867 | -82.68772 | 34973 ft | 414 kts | 351° |
| 2026-05-07 22:24 | 30.32633 | -82.68731 | 34972 ft | 414 kts | 351° |
| 2026-05-07 22:24 | 30.38372 | -82.68691 | 34969 ft | 412 kts | 351° |
| 2026-05-07 22:25 | 30.44116 | -82.68649 | 34968 ft | 414 kts | 351° |
| 2026-05-07 22:25 | 30.49871 | -82.68569 | 34963 ft | 416 kts | 354° |
| 2026-05-07 22:26 | 30.55661 | -82.67658 | 34963 ft | 423 kts | 1° |
| 2026-05-07 22:26 | 30.61451 | -82.66391 | 34965 ft | 425 kts | 1° |
| 2026-05-07 22:27 | 30.67269 | -82.65140 | 34968 ft | 425 kts | 1° |
| 2026-05-07 22:27 | 30.73030 | -82.63910 | 34966 ft | 423 kts | 1° |
| 2026-05-07 22:28 | 30.78829 | -82.62680 | 34969 ft | 425 kts | 1° |
| 2026-05-07 22:28 | 30.84648 | -82.61446 | 34973 ft | 425 kts | 1° |
| 2026-05-07 22:29 | 30.90454 | -82.60207 | 34970 ft | 424 kts | 1° |
| 2026-05-07 22:29 | 30.96257 | -82.58966 | 34969 ft | 424 kts | 1° |
| 2026-05-07 22:30 | 31.02062 | -82.57723 | 34970 ft | 424 kts | 1° |
| 2026-05-07 22:30 | 31.07856 | -82.56248 | 34968 ft | 430 kts | 8° |
| 2026-05-07 22:31 | 31.13470 | -82.53564 | 34971 ft | 442 kts | 18° |
| 2026-05-07 22:31 | 31.18887 | -82.50212 | 34972 ft | 443 kts | 19° |
| 2026-05-07 22:32 | 31.24326 | -82.46847 | 34964 ft | 441 kts | 19° |
| 2026-05-07 22:32 | 31.29764 | -82.43512 | 34964 ft | 442 kts | 19° |
| 2026-05-07 22:33 | 31.35215 | -82.40177 | 34965 ft | 443 kts | 19° |
| 2026-05-07 22:33 | 31.40678 | -82.36847 | 34961 ft | 443 kts | 19° |
| 2026-05-07 22:34 | 31.46162 | -82.33513 | 34960 ft | 443 kts | 19° |
| 2026-05-07 22:34 | 31.51636 | -82.30171 | 34953 ft | 444 kts | 19° |
| 2026-05-07 22:35 | 31.57111 | -82.26821 | 34950 ft | 445 kts | 19° |
| 2026-05-07 22:35 | 31.62582 | -82.23466 | 34946 ft | 442 kts | 19° |
| 2026-05-07 22:36 | 31.68046 | -82.20112 | 34940 ft | 445 kts | 19° |
| 2026-05-07 22:36 | 31.73528 | -82.16741 | 34937 ft | 445 kts | 19° |
| 2026-05-07 22:37 | 31.79004 | -82.13369 | 34930 ft | 446 kts | 19° |
| 2026-05-07 22:37 | 31.84505 | -82.09978 | 34923 ft | 446 kts | 19° |
| 2026-05-07 22:38 | 31.89999 | -82.06603 | 34921 ft | 445 kts | 18° |
| 2026-05-07 22:38 | 31.95503 | -82.03200 | 34915 ft | 447 kts | 19° |
| 2026-05-07 22:39 | 32.00956 | -81.99818 | 34911 ft | 446 kts | 19° |
| 2026-05-07 22:39 | 32.06449 | -81.96407 | 34910 ft | 447 kts | 19° |
| 2026-05-07 22:40 | 32.11953 | -81.92988 | 34906 ft | 446 kts | 19° |
| 2026-05-07 22:40 | 32.17282 | -81.89103 | 34904 ft | 455 kts | 27° |
| 2026-05-07 22:41 | 32.22407 | -81.84637 | 34903 ft | 458 kts | 27° |
| 2026-05-07 22:41 | 32.27539 | -81.80164 | 34900 ft | 458 kts | 27° |
| 2026-05-07 22:42 | 32.32658 | -81.75715 | 34895 ft | 455 kts | 27° |
| 2026-05-07 22:42 | 32.37769 | -81.71271 | 34890 ft | 458 kts | 27° |
| 2026-05-07 22:43 | 32.42916 | -81.66804 | 34887 ft | 458 kts | 27° |
| 2026-05-07 22:43 | 32.48052 | -81.62373 | 34894 ft | 457 kts | 27° |
| 2026-05-07 22:44 | 32.53179 | -81.57923 | 34902 ft | 457 kts | 27° |
| 2026-05-07 22:44 | 32.58313 | -81.53454 | 34915 ft | 457 kts | 27° |
| 2026-05-07 22:45 | 32.63401 | -81.49016 | 34918 ft | 458 kts | 27° |
| 2026-05-07 22:45 | 32.68560 | -81.44509 | 34917 ft | 457 kts | 27° |
| 2026-05-07 22:46 | 32.73658 | -81.40049 | 34919 ft | 459 kts | 27° |
| 2026-05-07 22:46 | 32.78792 | -81.35550 | 34919 ft | 459 kts | 27° |
| 2026-05-07 22:47 | 32.83933 | -81.31066 | 34910 ft | 457 kts | 27° |
| 2026-05-07 22:47 | 32.89051 | -81.26563 | 34906 ft | 458 kts | 27° |
| 2026-05-07 22:48 | 32.94173 | -81.22046 | 34904 ft | 458 kts | 27° |
| 2026-05-07 22:48 | 32.99292 | -81.17524 | 34900 ft | 459 kts | 27° |
| 2026-05-07 22:49 | 33.04421 | -81.12994 | 34897 ft | 459 kts | 27° |
| 2026-05-07 22:49 | 33.09713 | -81.08801 | 34891 ft | 454 kts | 22° |
| 2026-05-07 22:50 | 33.15077 | -81.04836 | 34886 ft | 454 kts | 22° |
| 2026-05-07 22:50 | 33.20434 | -81.00823 | 34884 ft | 455 kts | 22° |
| 2026-05-07 22:51 | 33.25792 | -80.96784 | 34877 ft | 456 kts | 22° |
| 2026-05-07 22:51 | 33.31124 | -80.92753 | 34870 ft | 456 kts | 22° |
| 2026-05-07 22:52 | 33.36496 | -80.88705 | 34870 ft | 456 kts | 22° |
| 2026-05-07 22:52 | 33.41871 | -80.84659 | 34870 ft | 457 kts | 22° |
| 2026-05-07 22:53 | 33.47237 | -80.80599 | 34869 ft | 457 kts | 22° |
| 2026-05-07 22:53 | 33.52605 | -80.76527 | 34867 ft | 457 kts | 22° |
| 2026-05-07 22:54 | 33.57981 | -80.72440 | 34861 ft | 457 kts | 22° |
| 2026-05-07 22:54 | 33.63347 | -80.68355 | 34846 ft | 457 kts | 22° |
| 2026-05-07 22:55 | 33.68712 | -80.64263 | 34836 ft | 457 kts | 22° |
| 2026-05-07 22:55 | 33.74074 | -80.60169 | 34832 ft | 456 kts | 23° |
| 2026-05-07 22:56 | 33.79215 | -80.56235 | 34823 ft | 457 kts | 22° |
| 2026-05-07 22:56 | 33.84554 | -80.52145 | 34515 ft | 458 kts | 22° |
| 2026-05-07 22:56 | 33.87245 | -80.50080 | 34265 ft | 459 kts | 22° |
| 2026-05-07 22:57 | 33.89942 | -80.48010 | 34015 ft | 461 kts | 22° |
| 2026-05-07 22:57 | 33.92648 | -80.45931 | 33765 ft | 462 kts | 22° |
| 2026-05-07 22:57 | 33.95364 | -80.43843 | 33515 ft | 464 kts | 22° |
| 2026-05-07 22:57 | 33.98091 | -80.41745 | 33265 ft | 466 kts | 22° |
| 2026-05-07 22:58 | 34.00836 | -80.39631 | 33015 ft | 468 kts | 22° |
| 2026-05-07 22:58 | 34.03577 | -80.37519 | 32765 ft | 470 kts | 21° |
| 2026-05-07 22:58 | 34.06330 | -80.35396 | 32261 ft | 469 kts | 21° |
| 2026-05-07 22:58 | 34.09087 | -80.33267 | 31706 ft | 470 kts | 21° |
| 2026-05-07 22:59 | 34.11834 | -80.31145 | 31206 ft | 469 kts | 21° |
| 2026-05-07 22:59 | 34.14578 | -80.29025 | 30743 ft | 467 kts | 20° |
| 2026-05-07 22:59 | 34.17310 | -80.26913 | 30282 ft | 465 kts | 20° |
| 2026-05-07 22:59 | 34.20032 | -80.24806 | 29821 ft | 464 kts | 21° |
| 2026-05-07 23:00 | 34.22739 | -80.22709 | 29359 ft | 461 kts | 21° |
| 2026-05-07 23:00 | 34.25439 | -80.20616 | 28869 ft | 459 kts | 21° |
| 2026-05-07 23:00 | 34.28123 | -80.18533 | 28379 ft | 457 kts | 21° |
| 2026-05-07 23:00 | 34.30790 | -80.16462 | 27889 ft | 454 kts | 21° |
| 2026-05-07 23:01 | 34.33440 | -80.14402 | 27400 ft | 452 kts | 21° |
| 2026-05-07 23:01 | 34.36076 | -80.12352 | 26913 ft | 449 kts | 21° |
| 2026-05-07 23:01 | 34.38695 | -80.10314 | 26424 ft | 447 kts | 21° |
| 2026-05-07 23:01 | 34.41304 | -80.08283 | 25938 ft | 444 kts | 21° |
| 2026-05-07 23:02 | 34.43864 | -80.06305 | 25461 ft | 441 kts | 22° |
| 2026-05-07 23:02 | 34.45604 | -80.04952 | 25136 ft | 439 kts | 22° |
| 2026-05-07 23:02 | 34.48167 | -80.02952 | 24647 ft | 437 kts | 22° |
| 2026-05-07 23:02 | 34.51538 | -80.00315 | 24014 ft | 433 kts | 22° |
| 2026-05-07 23:03 | 34.54060 | -79.98340 | 23537 ft | 431 kts | 22° |
| 2026-05-07 23:03 | 34.55759 | -79.97009 | 23206 ft | 429 kts | 23° |
| 2026-05-07 23:03 | 34.59065 | -79.94414 | 22570 ft | 426 kts | 23° |
| 2026-05-07 23:03 | 34.60742 | -79.93097 | 22250 ft | 425 kts | 24° |
| 2026-05-07 23:04 | 34.63216 | -79.91153 | 21784 ft | 422 kts | 24° |
| 2026-05-07 23:04 | 34.65678 | -79.89222 | 21324 ft | 419 kts | 24° |
| 2026-05-07 23:04 | 34.68084 | -79.87331 | 20977 ft | 414 kts | 25° |
| 2026-05-07 23:04 | 34.70469 | -79.85392 | 20551 ft | 413 kts | 27° |
| 2026-05-07 23:05 | 34.72798 | -79.83355 | 20172 ft | 410 kts | 29° |
| 2026-05-07 23:05 | 34.75073 | -79.81294 | 19815 ft | 405 kts | 30° |
| 2026-05-07 23:05 | 34.77319 | -79.79271 | 19465 ft | 399 kts | 30° |
| 2026-05-07 23:05 | 34.79539 | -79.77285 | 19123 ft | 394 kts | 30° |
| 2026-05-07 23:06 | 34.81740 | -79.75323 | 18789 ft | 391 kts | 30° |
| 2026-05-07 23:06 | 34.83933 | -79.73372 | 18456 ft | 389 kts | 30° |
| 2026-05-07 23:06 | 34.86119 | -79.71446 | 18130 ft | 387 kts | 28° |
| 2026-05-07 23:06 | 34.88298 | -79.69537 | 17805 ft | 385 kts | 28° |
| 2026-05-07 23:07 | 34.90463 | -79.67630 | 17512 ft | 383 kts | 29° |
| 2026-05-07 23:07 | 34.92621 | -79.65718 | 17210 ft | 384 kts | 29° |
| 2026-05-07 23:07 | 34.94784 | -79.63796 | 16890 ft | 385 kts | 29° |
| 2026-05-07 23:07 | 34.96939 | -79.61878 | 16567 ft | 382 kts | 28° |
| 2026-05-07 23:08 | 34.99071 | -79.59981 | 16247 ft | 379 kts | 28° |
| 2026-05-07 23:08 | 35.01203 | -79.58082 | 15928 ft | 378 kts | 28° |
| 2026-05-07 23:08 | 35.03323 | -79.56191 | 15609 ft | 376 kts | 28° |
| 2026-05-07 23:08 | 35.05408 | -79.54332 | 15294 ft | 374 kts | 27° |
| 2026-05-07 23:09 | 35.07507 | -79.52460 | 14975 ft | 372 kts | 27° |
| 2026-05-07 23:09 | 35.09612 | -79.50654 | 14656 ft | 366 kts | 21° |
| 2026-05-07 23:09 | 35.11848 | -79.49337 | 14346 ft | 348 kts | 8° |
| 2026-05-07 23:09 | 35.14140 | -79.48615 | 14052 ft | 334 kts | 357° |
| 2026-05-07 23:10 | 35.16410 | -79.48243 | 13771 ft | 326 kts | 352° |
| 2026-05-07 23:10 | 35.18655 | -79.47995 | 13500 ft | 323 kts | 351° |
| 2026-05-07 23:10 | 35.20894 | -79.47730 | 13227 ft | 322 kts | 352° |
| 2026-05-07 23:10 | 35.23122 | -79.47446 | 12953 ft | 321 kts | 352° |
| 2026-05-07 23:11 | 35.25336 | -79.47154 | 12680 ft | 320 kts | 353° |
| 2026-05-07 23:11 | 35.27539 | -79.46859 | 12407 ft | 317 kts | 353° |
| 2026-05-07 23:11 | 35.29728 | -79.46564 | 12136 ft | 316 kts | 353° |
| 2026-05-07 23:11 | 35.31901 | -79.46272 | 11868 ft | 314 kts | 353° |
| 2026-05-07 23:12 | 35.34072 | -79.45980 | 11603 ft | 312 kts | 353° |
| 2026-05-07 23:12 | 35.36210 | -79.45688 | 11347 ft | 313 kts | 354° |
| 2026-05-07 23:12 | 35.38378 | -79.45368 | 11081 ft | 315 kts | 357° |
| 2026-05-07 23:12 | 35.40522 | -79.44842 | 10858 ft | 314 kts | 358° |
| 2026-05-07 23:13 | 35.42657 | -79.44559 | 10546 ft | 304 kts | 352° |
| 2026-05-07 23:13 | 35.44755 | -79.44439 | 10275 ft | 299 kts | 351° |
| 2026-05-07 23:13 | 35.46807 | -79.44321 | 10039 ft | 290 kts | 351° |
| 2026-05-07 23:13 | 35.48797 | -79.44204 | 9892 ft | 286 kts | 351° |
| 2026-05-07 23:14 | 35.50779 | -79.44088 | 9850 ft | 284 kts | 351° |
| 2026-05-07 23:14 | 35.52762 | -79.43916 | 9741 ft | 292 kts | 357° |
| 2026-05-07 23:14 | 35.54737 | -79.43004 | 9346 ft | 318 kts | 25° |
| 2026-05-07 23:14 | 35.56291 | -79.41005 | 8887 ft | 332 kts | 51° |
| 2026-05-07 23:15 | 35.57306 | -79.38456 | 8460 ft | 334 kts | 66° |
| 2026-05-07 23:15 | 35.58109 | -79.35790 | 8154 ft | 333 kts | 66° |
| 2026-05-07 23:15 | 35.58908 | -79.33119 | 8003 ft | 329 kts | 68° |
| 2026-05-07 23:15 | 35.59679 | -79.30490 | 7602 ft | 327 kts | 68° |
| 2026-05-07 23:16 | 35.60450 | -79.27861 | 7172 ft | 326 kts | 68° |
| 2026-05-07 23:16 | 35.61211 | -79.25254 | 6785 ft | 323 kts | 68° |
| 2026-05-07 23:16 | 35.61968 | -79.22668 | 6407 ft | 320 kts | 68° |
| 2026-05-07 23:16 | 35.62715 | -79.20110 | 6122 ft | 315 kts | 68° |
| 2026-05-07 23:17 | 35.63460 | -79.17561 | 6029 ft | 316 kts | 68° |
| 2026-05-07 23:17 | 35.64201 | -79.15041 | 5853 ft | 312 kts | 68° |
| 2026-05-07 23:17 | 35.64939 | -79.12505 | 5655 ft | 315 kts | 68° |
| 2026-05-07 23:17 | 35.65767 | -79.10064 | 5517 ft | 299 kts | 61° |
| 2026-05-07 23:18 | 35.66686 | -79.07843 | 5381 ft | 284 kts | 59° |
| 2026-05-07 23:18 | 35.67576 | -79.05693 | 5259 ft | 282 kts | 59° |
| 2026-05-07 23:18 | 35.68440 | -79.03528 | 5134 ft | 281 kts | 60° |
| 2026-05-07 23:18 | 35.69184 | -79.01638 | 5030 ft | 280 kts | 60° |
| 2026-05-07 23:19 | 35.70218 | -78.99658 | 4866 ft | 281 kts | 45° |
| 2026-05-07 23:19 | 35.71529 | -78.98004 | 4502 ft | 279 kts | 38° |
| 2026-05-07 23:19 | 35.72861 | -78.96442 | 4143 ft | 278 kts | 37° |
| 2026-05-07 23:19 | 35.74216 | -78.94810 | 3782 ft | 266 kts | 38° |
| 2026-05-07 23:20 | 35.75483 | -78.93263 | 3433 ft | 248 kts | 38° |
| 2026-05-07 23:20 | 35.76650 | -78.91830 | 3127 ft | 225 kts | 39° |
| 2026-05-07 23:20 | 35.77687 | -78.90553 | 2823 ft | 209 kts | 40° |
| 2026-05-07 23:20 | 35.78687 | -78.89322 | 2563 ft | 196 kts | 40° |
| 2026-05-07 23:21 | 35.79620 | -78.88171 | 2314 ft | 183 kts | 41° |
| 2026-05-07 23:21 | 35.80475 | -78.87119 | 2079 ft | 165 kts | 43° |
| 2026-05-07 23:21 | 35.81254 | -78.86157 | 1857 ft | 152 kts | 41° |
| 2026-05-07 23:21 | 35.81974 | -78.85268 | 1664 ft | 146 kts | 39° |
| 2026-05-07 23:22 | 35.82698 | -78.84366 | 1456 ft | 147 kts | 39° |
| 2026-05-07 23:22 | 35.83393 | -78.83460 | 1309 ft | 144 kts | 39° |
| 2026-05-07 23:22 | 35.84095 | -78.82604 | 1144 ft | 141 kts | 37° |
| 2026-05-07 23:22 | 35.84793 | -78.81778 | 984 ft | 139 kts | 38° |
| 2026-05-07 23:23 | 35.85485 | -78.80947 | 749 ft | 138 kts | 40° |
| 2026-05-07 23:23 | 35.86144 | -78.80132 | 546 ft | 131 kts | 43° |
| 2026-05-07 23:23 | 35.86769 | -78.79361 | 445 ft | 119 kts | 44° |
| 2026-05-07 23:23 | 35.87207 | -78.78815 | 443 ft | 53 kts | 45° |
| 2026-05-07 23:24 | 35.87358 | -78.78632 | 443 ft | 22 kts | 43° |
| 2026-05-07 23:24 | 35.87421 | -78.78627 | 443 ft | 7 kts | 315° |
| 2026-05-07 23:24 | 35.87460 | -78.78698 | 443 ft | 13 kts | 261° |
| 2026-05-07 23:24 | 35.87387 | -78.78783 | 443 ft | 11 kts | 227° |
| 2026-05-07 23:25 | 35.87357 | -78.78858 | 443 ft | 10 kts | 278° |
| 2026-05-07 23:25 | 35.87401 | -78.78906 | 443 ft | 7 kts | 350° |
| 2026-05-07 23:25 | 35.87428 | -78.78915 | 443 ft | 1 kts | 343° |